Terminal Aerodrome Forecast
Issued by NWS

Home | Current Version | Previous Version | Text Only | Print | Product List | Glossary On
Versions: 1 2 3 4 5 6 7 8 9 10 11 12 13 14 15 16 17 18
000
FTUS43 KIND 242324
TAFHUF
TAF
KHUF 242324Z 2500/2524 22008KT P6SM SCT025 BKN080
     FM250200 21006KT P6SM SCT080 BKN250
     FM250700 21006KT P6SM VCTS SCT040CB BKN080
     FM251200 21007KT P6SM BKN080
     FM251500 23013G18KT P6SM SCT030 SCT250=

USA.gov is the U.S. government's official web portal to all federal, state and local government web resources and services.